sensor_id;sensor_type;location;lat;lon;timestamp;temperature;humidity
39525;DHT22;25203;50.754;6.978;2023-04-24T00:00:57;11.20;99.90
39525;DHT22;25203;50.754;6.978;2023-04-24T00:02:59;11.20;99.90
39525;DHT22;25203;50.754;6.978;2023-04-24T00:04:59;11.20;99.90
39525;DHT22;25203;50.754;6.978;2023-04-24T00:07:03;11.20;99.90
39525;DHT22;25203;50.754;6.978;2023-04-24T00:09:03;11.10;99.90
39525;DHT22;25203;50.754;6.978;2023-04-24T00:11:04;11.00;99.90
39525;DHT22;25203;50.754;6.978;2023-04-24T00:13:05;10.90;99.90
39525;DHT22;25203;50.754;6.978;2023-04-24T00:15:06;10.80;99.90
39525;DHT22;25203;50.754;6.978;2023-04-24T00:17:06;10.80;99.90
39525;DHT22;25203;50.754;6.978;2023-04-24T00:19:07;10.80;99.90
39525;DHT22;25203;50.754;6.978;2023-04-24T00:21:07;10.70;99.90
39525;DHT22;25203;50.754;6.978;2023-04-24T00:23:08;10.70;99.90
39525;DHT22;25203;50.754;6.978;2023-04-24T00:25:09;10.70;99.90
39525;DHT22;25203;50.754;6.978;2023-04-24T00:27:09;10.80;99.90
39525;DHT22;25203;50.754;6.978;2023-04-24T00:29:10;10.80;99.90
39525;DHT22;25203;50.754;6.978;2023-04-24T00:31:11;10.90;99.90
39525;DHT22;25203;50.754;6.978;2023-04-24T00:33:11;10.90;99.90
39525;DHT22;25203;50.754;6.978;2023-04-24T00:35:12;10.90;99.90
39525;DHT22;25203;50.754;6.978;2023-04-24T00:37:12;10.90;99.90
39525;DHT22;25203;50.754;6.978;2023-04-24T00:39:13;10.90;99.90
39525;DHT22;25203;50.754;6.978;2023-04-24T00:41:14;10.90;99.90
39525;DHT22;25203;50.754;6.978;2023-04-24T00:43:14;10.90;99.90
39525;DHT22;25203;50.754;6.978;2023-04-24T00:45:15;10.90;99.90
39525;DHT22;25203;50.754;6.978;2023-04-24T00:47:16;10.90;99.90
39525;DHT22;25203;50.754;6.978;2023-04-24T00:49:18;11.00;99.90
39525;DHT22;25203;50.754;6.978;2023-04-24T00:51:18;11.00;99.90
39525;DHT22;25203;50.754;6.978;2023-04-24T00:53:19;11.00;99.90
39525;DHT22;25203;50.754;6.978;2023-04-24T00:55:21;11.00;99.90
39525;DHT22;25203;50.754;6.978;2023-04-24T00:57:21;11.00;99.90
39525;DHT22;25203;50.754;6.978;2023-04-24T00:59:24;11.00;99.90
39525;DHT22;25203;50.754;6.978;2023-04-24T01:01:25;11.00;99.90
39525;DHT22;25203;50.754;6.978;2023-04-24T01:03:28;11.00;99.90
39525;DHT22;25203;50.754;6.978;2023-04-24T01:05:29;11.00;99.90
39525;DHT22;25203;50.754;6.978;2023-04-24T01:07:30;11.10;99.90
39525;DHT22;25203;50.754;6.978;2023-04-24T01:09:31;11.10;99.90
39525;DHT22;25203;50.754;6.978;2023-04-24T01:11:32;11.10;99.90
39525;DHT22;25203;50.754;6.978;2023-04-24T01:13:33;11.00;99.90
39525;DHT22;25203;50.754;6.978;2023-04-24T01:15:34;11.00;99.90
39525;DHT22;25203;50.754;6.978;2023-04-24T01:17:35;11.00;99.90
39525;DHT22;25203;50.754;6.978;2023-04-24T01:19:36;10.90;99.90
39525;DHT22;25203;50.754;6.978;2023-04-24T01:21:38;11.00;99.90
39525;DHT22;25203;50.754;6.978;2023-04-24T01:23:39;11.00;99.90
39525;DHT22;25203;50.754;6.978;2023-04-24T01:25:40;11.00;99.90
39525;DHT22;25203;50.754;6.978;2023-04-24T01:27:41;10.90;99.90
39525;DHT22;25203;50.754;6.978;2023-04-24T01:29:41;10.90;99.90
39525;DHT22;25203;50.754;6.978;2023-04-24T01:31:42;10.90;99.90
39525;DHT22;25203;50.754;6.978;2023-04-24T01:33:43;10.80;99.90
39525;DHT22;25203;50.754;6.978;2023-04-24T01:35:44;10.80;99.90
39525;DHT22;25203;50.754;6.978;2023-04-24T01:37:45;10.70;99.90
39525;DHT22;25203;50.754;6.978;2023-04-24T01:39:45;10.70;99.90
39525;DHT22;25203;50.754;6.978;2023-04-24T01:41:46;10.70;99.90
39525;DHT22;25203;50.754;6.978;2023-04-24T01:43:48;10.60;99.90
39525;DHT22;25203;50.754;6.978;2023-04-24T01:45:49;10.60;99.90
39525;DHT22;25203;50.754;6.978;2023-04-24T01:47:50;10.50;99.90
39525;DHT22;25203;50.754;6.978;2023-04-24T01:49:51;10.50;99.90
39525;DHT22;25203;50.754;6.978;2023-04-24T01:51:51;10.40;99.90
39525;DHT22;25203;50.754;6.978;2023-04-24T01:53:52;10.40;99.90
39525;DHT22;25203;50.754;6.978;2023-04-24T01:55:53;10.30;99.90
39525;DHT22;25203;50.754;6.978;2023-04-24T01:57:55;10.20;99.90
39525;DHT22;25203;50.754;6.978;2023-04-24T01:59:56;10.20;99.90
39525;DHT22;25203;50.754;6.978;2023-04-24T02:01:57;10.20;99.90
39525;DHT22;25203;50.754;6.978;2023-04-24T02:03:57;10.10;99.90
39525;DHT22;25203;50.754;6.978;2023-04-24T02:05:58;10.10;99.90
39525;DHT22;25203;50.754;6.978;2023-04-24T02:07:58;10.00;99.90
39525;DHT22;25203;50.754;6.978;2023-04-24T02:09:59;10.00;99.90
39525;DHT22;25203;50.754;6.978;2023-04-24T02:12:00;9.90;99.90
39525;DHT22;25203;50.754;6.978;2023-04-24T02:14:01;9.90;99.90
39525;DHT22;25203;50.754;6.978;2023-04-24T02:16:01;9.90;99.90
39525;DHT22;25203;50.754;6.978;2023-04-24T02:18:02;9.80;99.90
39525;DHT22;25203;50.754;6.978;2023-04-24T02:20:03;9.70;99.90
39525;DHT22;25203;50.754;6.978;2023-04-24T02:22:04;9.60;99.90
39525;DHT22;25203;50.754;6.978;2023-04-24T02:24:04;9.50;99.90
39525;DHT22;25203;50.754;6.978;2023-04-24T02:26:05;9.50;99.90
39525;DHT22;25203;50.754;6.978;2023-04-24T02:28:06;9.40;99.90
39525;DHT22;25203;50.754;6.978;2023-04-24T02:30:07;9.30;99.90
39525;DHT22;25203;50.754;6.978;2023-04-24T02:32:08;9.20;99.90
39525;DHT22;25203;50.754;6.978;2023-04-24T02:34:12;9.10;99.90
39525;DHT22;25203;50.754;6.978;2023-04-24T02:36:12;9.10;99.90
39525;DHT22;25203;50.754;6.978;2023-04-24T02:38:13;9.00;99.90
39525;DHT22;25203;50.754;6.978;2023-04-24T02:40:14;8.90;99.90
39525;DHT22;25203;50.754;6.978;2023-04-24T02:42:14;8.80;99.90
39525;DHT22;25203;50.754;6.978;2023-04-24T02:44:15;8.80;99.90
39525;DHT22;25203;50.754;6.978;2023-04-24T02:46:17;8.80;99.90
39525;DHT22;25203;50.754;6.978;2023-04-24T02:48:18;8.80;99.90
39525;DHT22;25203;50.754;6.978;2023-04-24T02:50:18;8.80;99.90
39525;DHT22;25203;50.754;6.978;2023-04-24T02:52:19;8.80;99.90
39525;DHT22;25203;50.754;6.978;2023-04-24T02:54:19;8.70;99.90
39525;DHT22;25203;50.754;6.978;2023-04-24T02:56:20;8.70;99.90
39525;DHT22;25203;50.754;6.978;2023-04-24T02:58:21;8.60;99.90
39525;DHT22;25203;50.754;6.978;2023-04-24T03:00:21;8.60;99.90
39525;DHT22;25203;50.754;6.978;2023-04-24T03:02:22;8.50;99.90
39525;DHT22;25203;50.754;6.978;2023-04-24T03:04:22;8.50;99.90
39525;DHT22;25203;50.754;6.978;2023-04-24T03:06:23;8.40;99.90
39525;DHT22;25203;50.754;6.978;2023-04-24T03:08:24;8.40;99.90
39525;DHT22;25203;50.754;6.978;2023-04-24T03:10:24;8.50;99.90
39525;DHT22;25203;50.754;6.978;2023-04-24T03:12:25;8.50;99.90
39525;DHT22;25203;50.754;6.978;2023-04-24T03:14:26;8.40;99.90
39525;DHT22;25203;50.754;6.978;2023-04-24T03:16:26;8.50;99.90
39525;DHT22;25203;50.754;6.978;2023-04-24T03:18:27;8.50;99.90
39525;DHT22;25203;50.754;6.978;2023-04-24T03:20:27;8.50;99.90
39525;DHT22;25203;50.754;6.978;2023-04-24T03:22:28;8.50;99.90
39525;DHT22;25203;50.754;6.978;2023-04-24T03:24:28;8.50;99.90
39525;DHT22;25203;50.754;6.978;2023-04-24T03:26:29;8.40;99.90
39525;DHT22;25203;50.754;6.978;2023-04-24T03:28:30;8.40;99.90
39525;DHT22;25203;50.754;6.978;2023-04-24T03:30:30;8.40;99.90
39525;DHT22;25203;50.754;6.978;2023-04-24T03:32:31;8.40;99.90
39525;DHT22;25203;50.754;6.978;2023-04-24T03:34:32;8.40;99.90
39525;DHT22;25203;50.754;6.978;2023-04-24T03:36:33;8.40;99.90
39525;DHT22;25203;50.754;6.978;2023-04-24T03:38:33;8.40;99.90
39525;DHT22;25203;50.754;6.978;2023-04-24T03:40:34;8.40;99.90
39525;DHT22;25203;50.754;6.978;2023-04-24T03:42:34;8.50;99.90
39525;DHT22;25203;50.754;6.978;2023-04-24T03:44:35;8.50;99.90
39525;DHT22;25203;50.754;6.978;2023-04-24T03:46:36;8.50;99.90
39525;DHT22;25203;50.754;6.978;2023-04-24T03:48:37;8.40;99.90
39525;DHT22;25203;50.754;6.978;2023-04-24T03:50:37;8.40;99.90
39525;DHT22;25203;50.754;6.978;2023-04-24T03:52:38;8.40;99.90
39525;DHT22;25203;50.754;6.978;2023-04-24T03:54:38;8.30;99.90
39525;DHT22;25203;50.754;6.978;2023-04-24T03:56:39;8.30;99.90
39525;DHT22;25203;50.754;6.978;2023-04-24T03:58:40;8.30;99.90
39525;DHT22;25203;50.754;6.978;2023-04-24T04:00:40;8.20;99.90
39525;DHT22;25203;50.754;6.978;2023-04-24T04:02:41;8.20;99.90
39525;DHT22;25203;50.754;6.978;2023-04-24T04:04:42;8.20;99.90
39525;DHT22;25203;50.754;6.978;2023-04-24T04:06:43;8.20;99.90
39525;DHT22;25203;50.754;6.978;2023-04-24T04:08:44;8.20;99.90
39525;DHT22;25203;50.754;6.978;2023-04-24T04:10:45;8.30;99.90
39525;DHT22;25203;50.754;6.978;2023-04-24T04:12:45;8.30;99.90
39525;DHT22;25203;50.754;6.978;2023-04-24T04:14:46;8.30;99.90
39525;DHT22;25203;50.754;6.978;2023-04-24T04:16:46;8.30;99.90
39525;DHT22;25203;50.754;6.978;2023-04-24T04:18:47;8.30;99.90
39525;DHT22;25203;50.754;6.978;2023-04-24T04:20:48;8.20;99.90
39525;DHT22;25203;50.754;6.978;2023-04-24T04:22:48;8.20;99.90
39525;DHT22;25203;50.754;6.978;2023-04-24T04:24:49;8.20;99.90
39525;DHT22;25203;50.754;6.978;2023-04-24T04:26:51;8.10;99.90
39525;DHT22;25203;50.754;6.978;2023-04-24T04:28:52;8.20;99.90
39525;DHT22;25203;50.754;6.978;2023-04-24T04:30:53;8.20;99.90
39525;DHT22;25203;50.754;6.978;2023-04-24T04:32:55;8.20;99.90
39525;DHT22;25203;50.754;6.978;2023-04-24T04:34:56;8.20;99.90
39525;DHT22;25203;50.754;6.978;2023-04-24T04:36:57;8.20;99.90
39525;DHT22;25203;50.754;6.978;2023-04-24T04:38:59;8.30;99.90
39525;DHT22;25203;50.754;6.978;2023-04-24T04:41:00;8.30;99.90
39525;DHT22;25203;50.754;6.978;2023-04-24T04:43:01;8.30;99.90
39525;DHT22;25203;50.754;6.978;2023-04-24T04:45:01;8.30;99.90
39525;DHT22;25203;50.754;6.978;2023-04-24T04:47:02;8.20;99.90
39525;DHT22;25203;50.754;6.978;2023-04-24T04:49:05;8.30;99.90
39525;DHT22;25203;50.754;6.978;2023-04-24T04:51:06;8.30;99.90
39525;DHT22;25203;50.754;6.978;2023-04-24T04:53:07;8.30;99.90
39525;DHT22;25203;50.754;6.978;2023-04-24T04:55:07;8.30;99.90
39525;DHT22;25203;50.754;6.978;2023-04-24T04:57:08;8.30;99.90
39525;DHT22;25203;50.754;6.978;2023-04-24T04:59:09;8.30;99.90
39525;DHT22;25203;50.754;6.978;2023-04-24T05:01:10;8.30;99.90
39525;DHT22;25203;50.754;6.978;2023-04-24T05:03:10;8.30;99.90
39525;DHT22;25203;50.754;6.978;2023-04-24T05:05:11;8.30;99.90
39525;DHT22;25203;50.754;6.978;2023-04-24T05:07:11;8.40;99.90
39525;DHT22;25203;50.754;6.978;2023-04-24T05:09:12;8.40;99.90
39525;DHT22;25203;50.754;6.978;2023-04-24T05:11:12;8.40;99.90
39525;DHT22;25203;50.754;6.978;2023-04-24T05:13:13;8.40;99.90
39525;DHT22;25203;50.754;6.978;2023-04-24T05:15:14;8.40;99.90
39525;DHT22;25203;50.754;6.978;2023-04-24T05:17:14;8.40;99.90
39525;DHT22;25203;50.754;6.978;2023-04-24T05:19:15;8.40;99.90
39525;DHT22;25203;50.754;6.978;2023-04-24T05:21:16;8.40;99.90
39525;DHT22;25203;50.754;6.978;2023-04-24T05:23:16;8.40;99.90
39525;DHT22;25203;50.754;6.978;2023-04-24T05:25:17;8.50;99.90
39525;DHT22;25203;50.754;6.978;2023-04-24T05:27:17;8.60;99.90
39525;DHT22;25203;50.754;6.978;2023-04-24T05:29:18;8.60;99.90
39525;DHT22;25203;50.754;6.978;2023-04-24T05:31:19;8.70;99.90
39525;DHT22;25203;50.754;6.978;2023-04-24T05:33:20;8.70;99.90
39525;DHT22;25203;50.754;6.978;2023-04-24T05:35:20;8.80;99.90
39525;DHT22;25203;50.754;6.978;2023-04-24T05:37:21;8.90;99.90
39525;DHT22;25203;50.754;6.978;2023-04-24T05:39:22;8.90;99.90
39525;DHT22;25203;50.754;6.978;2023-04-24T05:41:22;9.00;99.90
39525;DHT22;25203;50.754;6.978;2023-04-24T05:43:23;9.00;99.90
39525;DHT22;25203;50.754;6.978;2023-04-24T05:45:23;9.00;99.90
39525;DHT22;25203;50.754;6.978;2023-04-24T05:47:24;9.00;99.90
39525;DHT22;25203;50.754;6.978;2023-04-24T05:49:26;9.00;99.90
39525;DHT22;25203;50.754;6.978;2023-04-24T05:51:27;9.10;99.90
39525;DHT22;25203;50.754;6.978;2023-04-24T05:53:27;9.20;99.90
39525;DHT22;25203;50.754;6.978;2023-04-24T05:55:28;9.20;99.90
39525;DHT22;25203;50.754;6.978;2023-04-24T05:57:29;9.30;99.90
39525;DHT22;25203;50.754;6.978;2023-04-24T05:59:29;9.40;99.90
39525;DHT22;25203;50.754;6.978;2023-04-24T06:01:30;9.40;99.90
39525;DHT22;25203;50.754;6.978;2023-04-24T06:03:32;9.30;99.90
39525;DHT22;25203;50.754;6.978;2023-04-24T06:05:33;9.20;99.90
39525;DHT22;25203;50.754;6.978;2023-04-24T06:07:33;9.20;99.90
39525;DHT22;25203;50.754;6.978;2023-04-24T06:09:34;9.20;99.90
39525;DHT22;25203;50.754;6.978;2023-04-24T06:11:35;9.20;99.90
39525;DHT22;25203;50.754;6.978;2023-04-24T06:13:36;9.20;99.90
39525;DHT22;25203;50.754;6.978;2023-04-24T06:15:36;9.20;99.90
39525;DHT22;25203;50.754;6.978;2023-04-24T06:17:37;9.30;99.90
39525;DHT22;25203;50.754;6.978;2023-04-24T06:19:37;9.40;99.90
39525;DHT22;25203;50.754;6.978;2023-04-24T06:21:38;9.50;99.90
39525;DHT22;25203;50.754;6.978;2023-04-24T06:23:39;9.60;99.90
39525;DHT22;25203;50.754;6.978;2023-04-24T06:25:39;9.60;99.90
39525;DHT22;25203;50.754;6.978;2023-04-24T06:27:40;9.60;99.90
39525;DHT22;25203;50.754;6.978;2023-04-24T06:29:40;9.60;99.90
39525;DHT22;25203;50.754;6.978;2023-04-24T06:31:41;9.60;99.90
39525;DHT22;25203;50.754;6.978;2023-04-24T06:33:42;9.60;99.90
39525;DHT22;25203;50.754;6.978;2023-04-24T06:35:43;9.60;99.90
39525;DHT22;25203;50.754;6.978;2023-04-24T06:37:44;9.50;99.90
39525;DHT22;25203;50.754;6.978;2023-04-24T06:39:44;9.50;99.90
39525;DHT22;25203;50.754;6.978;2023-04-24T06:41:45;9.50;99.90
39525;DHT22;25203;50.754;6.978;2023-04-24T06:43:46;9.40;99.90
39525;DHT22;25203;50.754;6.978;2023-04-24T06:45:46;9.30;99.90
39525;DHT22;25203;50.754;6.978;2023-04-24T06:47:47;9.30;99.90
39525;DHT22;25203;50.754;6.978;2023-04-24T06:49:48;9.20;99.90
39525;DHT22;25203;50.754;6.978;2023-04-24T06:51:48;9.10;99.90
39525;DHT22;25203;50.754;6.978;2023-04-24T06:53:49;9.00;99.90
39525;DHT22;25203;50.754;6.978;2023-04-24T06:55:50;8.90;99.90
39525;DHT22;25203;50.754;6.978;2023-04-24T06:57:50;8.90;99.90
39525;DHT22;25203;50.754;6.978;2023-04-24T06:59:51;8.80;99.90
39525;DHT22;25203;50.754;6.978;2023-04-24T07:01:52;8.80;99.90
39525;DHT22;25203;50.754;6.978;2023-04-24T07:03:52;8.80;99.90
39525;DHT22;25203;50.754;6.978;2023-04-24T07:05:54;8.80;99.90
39525;DHT22;25203;50.754;6.978;2023-04-24T07:07:55;8.80;99.90
39525;DHT22;25203;50.754;6.978;2023-04-24T07:09:56;8.90;99.90
39525;DHT22;25203;50.754;6.978;2023-04-24T07:11:57;8.90;99.90
39525;DHT22;25203;50.754;6.978;2023-04-24T07:13:58;8.90;99.90
39525;DHT22;25203;50.754;6.978;2023-04-24T07:15:59;8.90;99.90
39525;DHT22;25203;50.754;6.978;2023-04-24T07:18:01;8.80;99.90
39525;DHT22;25203;50.754;6.978;2023-04-24T07:20:01;8.80;99.90
39525;DHT22;25203;50.754;6.978;2023-04-24T07:22:02;8.80;99.90
39525;DHT22;25203;50.754;6.978;2023-04-24T07:24:03;8.80;99.90
39525;DHT22;25203;50.754;6.978;2023-04-24T07:26:04;8.70;99.90
39525;DHT22;25203;50.754;6.978;2023-04-24T07:28:05;8.70;99.90
39525;DHT22;25203;50.754;6.978;2023-04-24T07:30:06;8.70;99.90
39525;DHT22;25203;50.754;6.978;2023-04-24T07:32:07;8.60;99.90
39525;DHT22;25203;50.754;6.978;2023-04-24T07:34:08;8.60;99.90
39525;DHT22;25203;50.754;6.978;2023-04-24T07:36:08;8.60;99.90
39525;DHT22;25203;50.754;6.978;2023-04-24T07:38:15;8.50;99.90
39525;DHT22;25203;50.754;6.978;2023-04-24T07:40:16;8.50;99.90
39525;DHT22;25203;50.754;6.978;2023-04-24T07:42:16;8.50;99.90
39525;DHT22;25203;50.754;6.978;2023-04-24T07:44:17;8.50;99.90
39525;DHT22;25203;50.754;6.978;2023-04-24T07:46:18;8.50;99.90
39525;DHT22;25203;50.754;6.978;2023-04-24T07:48:18;8.50;99.90
39525;DHT22;25203;50.754;6.978;2023-04-24T07:50:19;8.40;99.90
39525;DHT22;25203;50.754;6.978;2023-04-24T07:52:20;8.40;99.90
39525;DHT22;25203;50.754;6.978;2023-04-24T07:54:21;8.40;99.90
39525;DHT22;25203;50.754;6.978;2023-04-24T07:56:21;8.40;99.90
39525;DHT22;25203;50.754;6.978;2023-04-24T07:58:22;8.30;99.90
39525;DHT22;25203;50.754;6.978;2023-04-24T08:00:23;8.30;99.90
39525;DHT22;25203;50.754;6.978;2023-04-24T08:02:24;8.20;99.90
39525;DHT22;25203;50.754;6.978;2023-04-24T08:04:26;8.10;99.90
39525;DHT22;25203;50.754;6.978;2023-04-24T08:06:27;8.00;99.90
39525;DHT22;25203;50.754;6.978;2023-04-24T08:08:30;8.00;99.90
39525;DHT22;25203;50.754;6.978;2023-04-24T08:10:31;8.00;99.90
39525;DHT22;25203;50.754;6.978;2023-04-24T08:12:31;8.00;99.90
39525;DHT22;25203;50.754;6.978;2023-04-24T08:14:32;7.90;99.90
39525;DHT22;25203;50.754;6.978;2023-04-24T08:16:34;7.90;99.90
39525;DHT22;25203;50.754;6.978;2023-04-24T08:18:35;7.80;99.90
39525;DHT22;25203;50.754;6.978;2023-04-24T08:20:36;7.80;99.90
39525;DHT22;25203;50.754;6.978;2023-04-24T08:22:36;7.80;99.90
39525;DHT22;25203;50.754;6.978;2023-04-24T08:24:37;7.80;99.90
39525;DHT22;25203;50.754;6.978;2023-04-24T08:26:38;7.70;99.90
39525;DHT22;25203;50.754;6.978;2023-04-24T08:28:38;7.70;99.90
39525;DHT22;25203;50.754;6.978;2023-04-24T08:30:39;7.70;99.90
39525;DHT22;25203;50.754;6.978;2023-04-24T08:32:40;7.60;99.90
39525;DHT22;25203;50.754;6.978;2023-04-24T08:34:40;7.60;99.90
39525;DHT22;25203;50.754;6.978;2023-04-24T08:36:41;7.50;99.90
39525;DHT22;25203;50.754;6.978;2023-04-24T08:38:42;7.40;99.90
39525;DHT22;25203;50.754;6.978;2023-04-24T08:40:43;7.30;99.90
39525;DHT22;25203;50.754;6.978;2023-04-24T08:42:46;7.20;99.90
39525;DHT22;25203;50.754;6.978;2023-04-24T08:44:48;7.00;99.90
39525;DHT22;25203;50.754;6.978;2023-04-24T08:46:49;6.90;99.90
39525;DHT22;25203;50.754;6.978;2023-04-24T08:48:52;6.90;99.90
39525;DHT22;25203;50.754;6.978;2023-04-24T08:50:53;6.80;99.90
39525;DHT22;25203;50.754;6.978;2023-04-24T08:52:54;6.80;99.90
39525;DHT22;25203;50.754;6.978;2023-04-24T08:54:56;6.80;99.90
39525;DHT22;25203;50.754;6.978;2023-04-24T08:57:01;6.80;99.90
39525;DHT22;25203;50.754;6.978;2023-04-24T08:59:02;6.80;99.90
39525;DHT22;25203;50.754;6.978;2023-04-24T09:01:03;6.90;99.90
39525;DHT22;25203;50.754;6.978;2023-04-24T09:03:05;6.90;99.90
39525;DHT22;25203;50.754;6.978;2023-04-24T09:05:07;7.00;99.90
39525;DHT22;25203;50.754;6.978;2023-04-24T09:07:09;6.90;99.90
39525;DHT22;25203;50.754;6.978;2023-04-24T09:09:10;7.00;99.90
39525;DHT22;25203;50.754;6.978;2023-04-24T09:11:12;7.00;99.90
39525;DHT22;25203;50.754;6.978;2023-04-24T09:13:13;7.00;99.90
39525;DHT22;25203;50.754;6.978;2023-04-24T09:15:14;7.00;99.90
39525;DHT22;25203;50.754;6.978;2023-04-24T09:17:15;7.10;99.90
39525;DHT22;25203;50.754;6.978;2023-04-24T09:19:16;7.10;99.90
39525;DHT22;25203;50.754;6.978;2023-04-24T09:21:17;7.10;99.90
39525;DHT22;25203;50.754;6.978;2023-04-24T09:23:17;7.10;99.90
39525;DHT22;25203;50.754;6.978;2023-04-24T09:25:18;7.10;99.90
39525;DHT22;25203;50.754;6.978;2023-04-24T09:27:19;7.10;99.90
39525;DHT22;25203;50.754;6.978;2023-04-24T09:29:19;7.00;99.90
39525;DHT22;25203;50.754;6.978;2023-04-24T09:31:20;7.10;99.90
39525;DHT22;25203;50.754;6.978;2023-04-24T09:33:22;7.00;99.90
39525;DHT22;25203;50.754;6.978;2023-04-24T09:35:23;7.10;99.90
39525;DHT22;25203;50.754;6.978;2023-04-24T09:37:28;7.10;99.90
39525;DHT22;25203;50.754;6.978;2023-04-24T09:39:29;7.10;99.90
39525;DHT22;25203;50.754;6.978;2023-04-24T09:41:31;7.20;99.90
39525;DHT22;25203;50.754;6.978;2023-04-24T09:43:32;7.30;99.90
39525;DHT22;25203;50.754;6.978;2023-04-24T09:45:37;7.30;99.90
39525;DHT22;25203;50.754;6.978;2023-04-24T09:47:39;7.30;99.90
39525;DHT22;25203;50.754;6.978;2023-04-24T09:49:39;7.40;99.90
39525;DHT22;25203;50.754;6.978;2023-04-24T09:51:42;7.40;99.90
39525;DHT22;25203;50.754;6.978;2023-04-24T09:53:46;7.50;99.90
39525;DHT22;25203;50.754;6.978;2023-04-24T09:55:47;7.60;99.90
39525;DHT22;25203;50.754;6.978;2023-04-24T09:57:54;7.70;99.90
39525;DHT22;25203;50.754;6.978;2023-04-24T09:59:57;7.60;99.90
39525;DHT22;25203;50.754;6.978;2023-04-24T10:01:59;7.70;99.90
39525;DHT22;25203;50.754;6.978;2023-04-24T10:04:00;7.80;99.90
39525;DHT22;25203;50.754;6.978;2023-04-24T10:06:02;7.80;99.90
39525;DHT22;25203;50.754;6.978;2023-04-24T10:08:11;7.90;99.90
39525;DHT22;25203;50.754;6.978;2023-04-24T10:10:12;7.90;99.90
39525;DHT22;25203;50.754;6.978;2023-04-24T10:12:13;8.00;99.90
39525;DHT22;25203;50.754;6.978;2023-04-24T10:14:24;8.00;99.90
39525;DHT22;25203;50.754;6.978;2023-04-24T10:16:26;7.90;99.90
39525;DHT22;25203;50.754;6.978;2023-04-24T10:18:28;7.90;99.90
39525;DHT22;25203;50.754;6.978;2023-04-24T10:20:30;7.90;99.90
39525;DHT22;25203;50.754;6.978;2023-04-24T10:22:32;8.00;99.90
39525;DHT22;25203;50.754;6.978;2023-04-24T10:24:33;8.00;99.90
39525;DHT22;25203;50.754;6.978;2023-04-24T10:26:36;8.00;99.90
39525;DHT22;25203;50.754;6.978;2023-04-24T10:28:37;8.10;99.90
39525;DHT22;25203;50.754;6.978;2023-04-24T10:30:42;8.30;99.90
39525;DHT22;25203;50.754;6.978;2023-04-24T10:32:43;8.50;99.90
39525;DHT22;25203;50.754;6.978;2023-04-24T10:34:44;8.50;99.90
39525;DHT22;25203;50.754;6.978;2023-04-24T10:36:49;8.50;99.90
39525;DHT22;25203;50.754;6.978;2023-04-24T10:38:53;8.50;99.90
39525;DHT22;25203;50.754;6.978;2023-04-24T10:41:08;8.40;99.90
39525;DHT22;25203;50.754;6.978;2023-04-24T10:43:09;8.40;99.90
39525;DHT22;25203;50.754;6.978;2023-04-24T10:45:18;8.20;99.90
39525;DHT22;25203;50.754;6.978;2023-04-24T10:47:21;8.20;99.90
39525;DHT22;25203;50.754;6.978;2023-04-24T10:49:28;8.20;99.90
39525;DHT22;25203;50.754;6.978;2023-04-24T10:53:46;8.50;99.90
39525;DHT22;25203;50.754;6.978;2023-04-24T10:56:04;8.50;99.90
39525;DHT22;25203;50.754;6.978;2023-04-24T10:58:05;8.50;99.90
39525;DHT22;25203;50.754;6.978;2023-04-24T11:00:20;8.60;99.90
39525;DHT22;25203;50.754;6.978;2023-04-24T11:02:38;8.60;99.90
39525;DHT22;25203;50.754;6.978;2023-04-24T11:04:40;8.50;99.90
39525;DHT22;25203;50.754;6.978;2023-04-24T11:06:41;8.50;99.90
39525;DHT22;25203;50.754;6.978;2023-04-24T11:08:45;8.50;99.90
39525;DHT22;25203;50.754;6.978;2023-04-24T11:10:47;8.70;99.90
39525;DHT22;25203;50.754;6.978;2023-04-24T11:12:54;9.00;99.90
39525;DHT22;25203;50.754;6.978;2023-04-24T11:14:59;9.60;99.90
39525;DHT22;25203;50.754;6.978;2023-04-24T11:17:00;9.90;99.90
39525;DHT22;25203;50.754;6.978;2023-04-24T11:21:17;9.90;99.90
39525;DHT22;25203;50.754;6.978;2023-04-24T11:23:18;9.80;99.90
39525;DHT22;25203;50.754;6.978;2023-04-24T11:25:21;10.00;99.90
39525;DHT22;25203;50.754;6.978;2023-04-24T11:27:22;10.20;99.90
39525;DHT22;25203;50.754;6.978;2023-04-24T11:32:24;10.80;99.90
39525;DHT22;25203;50.754;6.978;2023-04-24T11:34:25;11.40;99.90
39525;DHT22;25203;50.754;6.978;2023-04-24T11:36:26;12.10;99.90
39525;DHT22;25203;50.754;6.978;2023-04-24T11:38:27;12.30;99.90
39525;DHT22;25203;50.754;6.978;2023-04-24T11:40:28;12.30;99.90
39525;DHT22;25203;50.754;6.978;2023-04-24T11:42:28;12.10;99.90
39525;DHT22;25203;50.754;6.978;2023-04-24T11:44:36;12.20;99.90
39525;DHT22;25203;50.754;6.978;2023-04-24T11:46:39;11.90;99.90
39525;DHT22;25203;50.754;6.978;2023-04-24T11:48:45;11.90;99.90
39525;DHT22;25203;50.754;6.978;2023-04-24T11:50:46;11.70;99.90
39525;DHT22;25203;50.754;6.978;2023-04-24T11:52:48;11.60;99.90
39525;DHT22;25203;50.754;6.978;2023-04-24T11:54:50;11.40;99.90
39525;DHT22;25203;50.754;6.978;2023-04-24T11:56:50;11.30;99.90
39525;DHT22;25203;50.754;6.978;2023-04-24T11:58:54;11.30;99.90
39525;DHT22;25203;50.754;6.978;2023-04-24T12:00:58;11.30;99.90
39525;DHT22;25203;50.754;6.978;2023-04-24T12:03:06;11.40;99.90
39525;DHT22;25203;50.754;6.978;2023-04-24T12:05:07;11.70;99.90
39525;DHT22;25203;50.754;6.978;2023-04-24T12:07:08;11.70;99.90
39525;DHT22;25203;50.754;6.978;2023-04-24T12:09:09;11.40;99.90
39525;DHT22;25203;50.754;6.978;2023-04-24T12:11:09;11.30;99.90
39525;DHT22;25203;50.754;6.978;2023-04-24T12:13:10;10.90;99.90
39525;DHT22;25203;50.754;6.978;2023-04-24T12:15:12;10.90;99.90
39525;DHT22;25203;50.754;6.978;2023-04-24T12:17:12;11.00;99.90
39525;DHT22;25203;50.754;6.978;2023-04-24T12:19:18;11.10;99.90
39525;DHT22;25203;50.754;6.978;2023-04-24T12:21:21;11.00;99.90
39525;DHT22;25203;50.754;6.978;2023-04-24T12:23:35;11.10;99.90
39525;DHT22;25203;50.754;6.978;2023-04-24T12:25:36;11.20;99.90
39525;DHT22;25203;50.754;6.978;2023-04-24T12:27:37;11.30;99.90
39525;DHT22;25203;50.754;6.978;2023-04-24T12:29:37;11.50;99.90
39525;DHT22;25203;50.754;6.978;2023-04-24T12:31:51;11.60;99.90
39525;DHT22;25203;50.754;6.978;2023-04-24T12:33:52;11.50;99.90
39525;DHT22;25203;50.754;6.978;2023-04-24T12:35:53;11.50;99.90
39525;DHT22;25203;50.754;6.978;2023-04-24T12:37:54;11.70;99.90
39525;DHT22;25203;50.754;6.978;2023-04-24T12:42:08;12.70;99.90
39525;DHT22;25203;50.754;6.978;2023-04-24T12:44:10;13.10;99.90
39525;DHT22;25203;50.754;6.978;2023-04-24T12:46:11;13.20;99.90
39525;DHT22;25203;50.754;6.978;2023-04-24T12:48:12;13.10;99.90
39525;DHT22;25203;50.754;6.978;2023-04-24T12:50:15;12.80;99.90
39525;DHT22;25203;50.754;6.978;2023-04-24T12:52:15;12.50;99.90
39525;DHT22;25203;50.754;6.978;2023-04-24T12:54:17;12.50;99.90
39525;DHT22;25203;50.754;6.978;2023-04-24T12:56:18;12.20;99.90
39525;DHT22;25203;50.754;6.978;2023-04-24T12:58:21;12.30;99.90
39525;DHT22;25203;50.754;6.978;2023-04-24T13:00:22;12.40;99.90
39525;DHT22;25203;50.754;6.978;2023-04-24T13:02:24;12.40;99.90
39525;DHT22;25203;50.754;6.978;2023-04-24T13:04:25;12.40;99.90
39525;DHT22;25203;50.754;6.978;2023-04-24T13:06:25;12.30;99.90